This is the latest recevied weather packets stored in our database for station/object F5NTS. If no packets are shown the sender has not sent any weather packets the latest 10 day(s).
| Time | Temp. | Humidity | Pressure | Rain* | Wind** | Luminosity | Snow |
|---|---|---|---|---|---|---|---|
| 1777560604 | 26.67° C | 25% | 1017.5 hPa | 0 mm | - | - | - |
| 1777556404 | 26.67° C | 25% | 1018 hPa | 0 mm | - | - | - |
| 1777550404 | 24.44° C | 27% | 1018.8 hPa | 0 mm | - | - | - |
| 1777549504 | 23.89° C | 29% | 1019 hPa | 0 mm | - | - | - |
| 1777546504 | 22.22° C | 31% | 1019.6 hPa | 0 mm | - | - | - |
| 1777545604 | 21.67° C | 32% | 1019.7 hPa | 0 mm | - | - | - |
| 1777541705 | 18.89° C | 34% | 1019.7 hPa | 0 mm | - | - | - |
| 1777537804 | 16.11° C | 37% | 1020 hPa | 0 mm | - | - | - |
| 1777537505 | 16.11° C | 38% | 1019.9 hPa | 0 mm | - | - | - |
| 1777536604 | 15.56° C | 39% | 1020.2 hPa | 0 mm | - | - | - |
| 1777536004 | 15° C | 40% | 1020.2 hPa | 0 mm | - | - | - |
| 1777532404 | 11.67° C | 46% | 1020.5 hPa | 0 mm | - | - | - |
| 1777530304 | 9.44° C | 49% | 1020.4 hPa | 0 mm | - | - | - |
| 1777530004 | 8.33° C | 50% | 1020.4 hPa | 0 mm | - | - | - |
| 1777529405 | 8.33° C | 51% | 1020.4 hPa | 0 mm | - | - | - |
| 1777527904 | 6.11° C | 53% | 1020.3 hPa | 0 mm | - | - | - |
| 1777526104 | 4.44° C | 53% | 1019.9 hPa | 0 mm | - | - | - |
| 1777525804 | 4.44° C | 54% | 1020.1 hPa | 0 mm | - | - | - |
| 1777525504 | 4.44° C | 54% | 1020.1 hPa | 0 mm | - | - | - |
| 1777520404 | 5.56° C | 47% | 1019.5 hPa | 0 mm | - | - | - |
| 1777520104 | 5.56° C | 47% | 1019.5 hPa | 0 mm | - | - | - |
| 1777518605 | 7.22° C | 44% | 1019.4 hPa | 0 mm | - | - | - |
| 1777518004 | 7.78° C | 43% | 1019.4 hPa | 0 mm | - | - | - |
| 1777517105 | 8.33° C | 42% | 1019.3 hPa | 0 mm | - | - | - |
| 1777516804 | 8.33° C | 42% | 1019.2 hPa | 0 mm | - | - | - |
* Rain latest hour (hover to see other rain measurements)
** Current wind speed in m/s (hover to see current wind gust speed)